sensor_id;sensor_type;location;lat;lon;timestamp;P1;durP1;ratioP1;P2;durP2;ratioP2
3667;SDS011;24099;47.102;15.440;2023-05-14T00:00:23;7.80;;;4.78;;
3667;SDS011;24099;47.102;15.440;2023-05-14T00:02:50;9.27;;;4.55;;
3667;SDS011;24099;47.102;15.440;2023-05-14T00:05:18;6.95;;;4.22;;
3667;SDS011;24099;47.102;15.440;2023-05-14T00:07:46;6.85;;;4.35;;
3667;SDS011;24099;47.102;15.440;2023-05-14T00:10:13;9.07;;;4.75;;
3667;SDS011;24099;47.102;15.440;2023-05-14T00:12:41;6.45;;;4.32;;
3667;SDS011;24099;47.102;15.440;2023-05-14T00:15:10;5.05;;;3.75;;
3667;SDS011;24099;47.102;15.440;2023-05-14T00:17:39;7.25;;;4.38;;
3667;SDS011;24099;47.102;15.440;2023-05-14T00:20:07;8.88;;;4.50;;
3667;SDS011;24099;47.102;15.440;2023-05-14T00:22:36;7.95;;;3.97;;
3667;SDS011;24099;47.102;15.440;2023-05-14T00:25:05;9.80;;;4.47;;
3667;SDS011;24099;47.102;15.440;2023-05-14T00:27:34;11.30;;;4.72;;
3667;SDS011;24099;47.102;15.440;2023-05-14T00:30:03;6.20;;;4.03;;
3667;SDS011;24099;47.102;15.440;2023-05-14T00:32:31;7.72;;;4.00;;
3667;SDS011;24099;47.102;15.440;2023-05-14T00:35:00;5.75;;;4.22;;
3667;SDS011;24099;47.102;15.440;2023-05-14T00:37:29;6.18;;;3.88;;
3667;SDS011;24099;47.102;15.440;2023-05-14T00:39:57;8.95;;;4.60;;
3667;SDS011;24099;47.102;15.440;2023-05-14T00:42:25;6.05;;;3.78;;
3667;SDS011;24099;47.102;15.440;2023-05-14T00:44:52;6.05;;;3.92;;
3667;SDS011;24099;47.102;15.440;2023-05-14T00:47:20;6.07;;;3.97;;
3667;SDS011;24099;47.102;15.440;2023-05-14T00:49:48;5.13;;;3.70;;
3667;SDS011;24099;47.102;15.440;2023-05-14T00:52:18;8.73;;;3.80;;
3667;SDS011;24099;47.102;15.440;2023-05-14T00:54:46;5.57;;;3.85;;
3667;SDS011;24099;47.102;15.440;2023-05-14T00:57:17;8.13;;;4.18;;
3667;SDS011;24099;47.102;15.440;2023-05-14T00:59:46;5.50;;;3.58;;
3667;SDS011;24099;47.102;15.440;2023-05-14T01:02:14;5.57;;;3.85;;
3667;SDS011;24099;47.102;15.440;2023-05-14T01:04:43;5.75;;;3.00;;
3667;SDS011;24099;47.102;15.440;2023-05-14T01:07:13;6.78;;;3.40;;
3667;SDS011;24099;47.102;15.440;2023-05-14T01:12:26;3.63;;;2.30;;
3667;SDS011;24099;47.102;15.440;2023-05-14T01:15:01;4.55;;;2.90;;
3667;SDS011;24099;47.102;15.440;2023-05-14T01:17:37;4.03;;;2.85;;
3667;SDS011;24099;47.102;15.440;2023-05-14T01:20:08;6.35;;;3.25;;
3667;SDS011;24099;47.102;15.440;2023-05-14T01:22:38;4.60;;;3.05;;
3667;SDS011;24099;47.102;15.440;2023-05-14T01:25:06;3.83;;;3.00;;
3667;SDS011;24099;47.102;15.440;2023-05-14T01:27:34;5.05;;;3.10;;
3667;SDS011;24099;47.102;15.440;2023-05-14T01:30:11;6.32;;;2.65;;
3667;SDS011;24099;47.102;15.440;2023-05-14T01:32:47;4.63;;;2.90;;
3667;SDS011;24099;47.102;15.440;2023-05-14T01:35:16;5.07;;;2.95;;
3667;SDS011;24099;47.102;15.440;2023-05-14T01:37:47;3.92;;;2.80;;
3667;SDS011;24099;47.102;15.440;2023-05-14T01:40:15;4.65;;;3.28;;
3667;SDS011;24099;47.102;15.440;2023-05-14T01:42:46;2.47;;;2.13;;
3667;SDS011;24099;47.102;15.440;2023-05-14T01:45:16;2.65;;;2.10;;
3667;SDS011;24099;47.102;15.440;2023-05-14T01:47:45;3.75;;;2.63;;
3667;SDS011;24099;47.102;15.440;2023-05-14T01:50:13;2.80;;;2.50;;
3667;SDS011;24099;47.102;15.440;2023-05-14T01:52:41;3.90;;;2.60;;
3667;SDS011;24099;47.102;15.440;2023-05-14T01:55:11;3.47;;;2.63;;
3667;SDS011;24099;47.102;15.440;2023-05-14T01:57:42;3.95;;;2.60;;
3667;SDS011;24099;47.102;15.440;2023-05-14T02:00:10;4.00;;;2.35;;
3667;SDS011;24099;47.102;15.440;2023-05-14T02:02:41;9.32;;;3.70;;
3667;SDS011;24099;47.102;15.440;2023-05-14T02:05:18;5.63;;;3.63;;
3667;SDS011;24099;47.102;15.440;2023-05-14T02:07:45;6.30;;;3.92;;
3667;SDS011;24099;47.102;15.440;2023-05-14T02:10:16;7.00;;;4.07;;
3667;SDS011;24099;47.102;15.440;2023-05-14T02:12:47;5.85;;;3.78;;
3667;SDS011;24099;47.102;15.440;2023-05-14T02:15:15;5.38;;;3.65;;
3667;SDS011;24099;47.102;15.440;2023-05-14T02:17:43;7.55;;;4.90;;
3667;SDS011;24099;47.102;15.440;2023-05-14T02:20:11;6.57;;;4.50;;
3667;SDS011;24099;47.102;15.440;2023-05-14T02:22:39;10.13;;;5.25;;
3667;SDS011;24099;47.102;15.440;2023-05-14T02:25:09;6.00;;;4.38;;
3667;SDS011;24099;47.102;15.440;2023-05-14T02:27:39;9.75;;;4.70;;
3667;SDS011;24099;47.102;15.440;2023-05-14T02:30:07;10.10;;;5.05;;
3667;SDS011;24099;47.102;15.440;2023-05-14T02:32:37;8.45;;;5.22;;
3667;SDS011;24099;47.102;15.440;2023-05-14T02:35:07;9.77;;;5.47;;
3667;SDS011;24099;47.102;15.440;2023-05-14T02:37:36;7.97;;;5.15;;
3667;SDS011;24099;47.102;15.440;2023-05-14T02:40:06;7.45;;;4.60;;
3667;SDS011;24099;47.102;15.440;2023-05-14T02:42:34;6.45;;;4.75;;
3667;SDS011;24099;47.102;15.440;2023-05-14T02:45:04;8.70;;;5.20;;
3667;SDS011;24099;47.102;15.440;2023-05-14T02:47:33;8.80;;;5.25;;
3667;SDS011;24099;47.102;15.440;2023-05-14T02:50:01;7.35;;;4.38;;
3667;SDS011;24099;47.102;15.440;2023-05-14T02:52:30;9.20;;;5.10;;
3667;SDS011;24099;47.102;15.440;2023-05-14T02:54:58;7.90;;;5.35;;
3667;SDS011;24099;47.102;15.440;2023-05-14T02:57:26;7.80;;;4.80;;
3667;SDS011;24099;47.102;15.440;2023-05-14T02:59:54;9.27;;;5.25;;
3667;SDS011;24099;47.102;15.440;2023-05-14T03:02:24;8.57;;;5.28;;
3667;SDS011;24099;47.102;15.440;2023-05-14T03:04:52;11.35;;;5.82;;
3667;SDS011;24099;47.102;15.440;2023-05-14T03:07:19;11.18;;;6.13;;
3667;SDS011;24099;47.102;15.440;2023-05-14T03:09:47;8.48;;;5.22;;
3667;SDS011;24099;47.102;15.440;2023-05-14T03:12:15;8.55;;;4.65;;
3667;SDS011;24099;47.102;15.440;2023-05-14T03:14:44;8.32;;;5.22;;
3667;SDS011;24099;47.102;15.440;2023-05-14T03:17:12;10.02;;;5.25;;
3667;SDS011;24099;47.102;15.440;2023-05-14T03:19:41;16.00;;;4.97;;
3667;SDS011;24099;47.102;15.440;2023-05-14T03:22:09;11.55;;;5.22;;
3667;SDS011;24099;47.102;15.440;2023-05-14T03:24:37;8.05;;;5.10;;
3667;SDS011;24099;47.102;15.440;2023-05-14T03:27:05;9.13;;;5.40;;
3667;SDS011;24099;47.102;15.440;2023-05-14T03:29:33;7.90;;;4.47;;
3667;SDS011;24099;47.102;15.440;2023-05-14T03:32:01;8.85;;;5.15;;
3667;SDS011;24099;47.102;15.440;2023-05-14T03:34:28;6.63;;;4.47;;
3667;SDS011;24099;47.102;15.440;2023-05-14T03:36:58;8.57;;;5.00;;
3667;SDS011;24099;47.102;15.440;2023-05-14T03:39:26;7.40;;;4.45;;
3667;SDS011;24099;47.102;15.440;2023-05-14T03:41:55;8.02;;;4.85;;
3667;SDS011;24099;47.102;15.440;2023-05-14T03:44:23;6.38;;;4.18;;
3667;SDS011;24099;47.102;15.440;2023-05-14T03:46:54;7.07;;;4.78;;
3667;SDS011;24099;47.102;15.440;2023-05-14T03:49:25;10.15;;;5.68;;
3667;SDS011;24099;47.102;15.440;2023-05-14T03:51:53;7.00;;;4.85;;
3667;SDS011;24099;47.102;15.440;2023-05-14T03:54:26;7.90;;;4.63;;
3667;SDS011;24099;47.102;15.440;2023-05-14T03:56:53;7.90;;;4.30;;
3667;SDS011;24099;47.102;15.440;2023-05-14T03:59:21;7.00;;;4.38;;
3667;SDS011;24099;47.102;15.440;2023-05-14T04:01:49;10.05;;;4.95;;
3667;SDS011;24099;47.102;15.440;2023-05-14T04:04:18;9.80;;;4.45;;
3667;SDS011;24099;47.102;15.440;2023-05-14T04:06:45;7.03;;;4.00;;
3667;SDS011;24099;47.102;15.440;2023-05-14T04:09:13;7.32;;;4.88;;
3667;SDS011;24099;47.102;15.440;2023-05-14T04:11:43;5.70;;;4.10;;
3667;SDS011;24099;47.102;15.440;2023-05-14T04:14:11;7.03;;;4.40;;
3667;SDS011;24099;47.102;15.440;2023-05-14T04:16:40;10.70;;;4.55;;
3667;SDS011;24099;47.102;15.440;2023-05-14T04:19:07;7.63;;;4.75;;
3667;SDS011;24099;47.102;15.440;2023-05-14T04:21:35;9.95;;;3.95;;
3667;SDS011;24099;47.102;15.440;2023-05-14T04:24:07;5.38;;;3.85;;
3667;SDS011;24099;47.102;15.440;2023-05-14T04:26:36;6.10;;;3.80;;
3667;SDS011;24099;47.102;15.440;2023-05-14T04:29:05;7.70;;;4.10;;
3667;SDS011;24099;47.102;15.440;2023-05-14T04:31:33;7.00;;;3.80;;
3667;SDS011;24099;47.102;15.440;2023-05-14T04:34:01;6.22;;;4.13;;
3667;SDS011;24099;47.102;15.440;2023-05-14T04:36:29;6.35;;;4.10;;
3667;SDS011;24099;47.102;15.440;2023-05-14T04:38:57;5.85;;;3.88;;
3667;SDS011;24099;47.102;15.440;2023-05-14T04:41:24;5.65;;;3.40;;
3667;SDS011;24099;47.102;15.440;2023-05-14T04:43:54;5.22;;;3.80;;
3667;SDS011;24099;47.102;15.440;2023-05-14T04:46:24;5.88;;;3.33;;
3667;SDS011;24099;47.102;15.440;2023-05-14T04:48:51;4.30;;;3.38;;
3667;SDS011;24099;47.102;15.440;2023-05-14T04:51:20;7.68;;;3.42;;
3667;SDS011;24099;47.102;15.440;2023-05-14T04:53:49;6.53;;;3.75;;
3667;SDS011;24099;47.102;15.440;2023-05-14T04:56:17;5.15;;;3.15;;
3667;SDS011;24099;47.102;15.440;2023-05-14T04:58:45;6.13;;;3.25;;
3667;SDS011;24099;47.102;15.440;2023-05-14T05:01:13;4.53;;;3.13;;
3667;SDS011;24099;47.102;15.440;2023-05-14T05:03:43;4.78;;;3.50;;
3667;SDS011;24099;47.102;15.440;2023-05-14T05:06:10;5.40;;;3.25;;
3667;SDS011;24099;47.102;15.440;2023-05-14T05:08:38;6.82;;;3.55;;
3667;SDS011;24099;47.102;15.440;2023-05-14T05:11:06;4.55;;;3.45;;
3667;SDS011;24099;47.102;15.440;2023-05-14T05:13:34;9.88;;;5.30;;
3667;SDS011;24099;47.102;15.440;2023-05-14T05:16:03;9.48;;;5.78;;
3667;SDS011;24099;47.102;15.440;2023-05-14T05:18:31;7.45;;;5.00;;
3667;SDS011;24099;47.102;15.440;2023-05-14T05:21:01;7.10;;;4.75;;
3667;SDS011;24099;47.102;15.440;2023-05-14T05:23:29;5.00;;;3.90;;
3667;SDS011;24099;47.102;15.440;2023-05-14T05:25:57;5.38;;;3.53;;
3667;SDS011;24099;47.102;15.440;2023-05-14T05:28:25;5.20;;;3.40;;
3667;SDS011;24099;47.102;15.440;2023-05-14T05:30:53;5.28;;;3.35;;
3667;SDS011;24099;47.102;15.440;2023-05-14T05:33:21;3.30;;;2.65;;
3667;SDS011;24099;47.102;15.440;2023-05-14T05:35:48;6.30;;;3.05;;
3667;SDS011;24099;47.102;15.440;2023-05-14T05:38:18;4.07;;;2.90;;
3667;SDS011;24099;47.102;15.440;2023-05-14T05:40:48;3.38;;;2.50;;
3667;SDS011;24099;47.102;15.440;2023-05-14T05:43:16;5.15;;;3.47;;
3667;SDS011;24099;47.102;15.440;2023-05-14T05:45:44;3.83;;;2.90;;
3667;SDS011;24099;47.102;15.440;2023-05-14T05:48:12;2.88;;;2.38;;
3667;SDS011;24099;47.102;15.440;2023-05-14T05:50:40;3.95;;;3.00;;
3667;SDS011;24099;47.102;15.440;2023-05-14T05:53:09;6.25;;;2.70;;
3667;SDS011;24099;47.102;15.440;2023-05-14T05:55:39;4.40;;;2.97;;
3667;SDS011;24099;47.102;15.440;2023-05-14T05:58:07;3.67;;;2.55;;
3667;SDS011;24099;47.102;15.440;2023-05-14T06:00:39;5.20;;;2.92;;
3667;SDS011;24099;47.102;15.440;2023-05-14T06:03:07;5.10;;;2.85;;
3667;SDS011;24099;47.102;15.440;2023-05-14T06:05:35;4.05;;;2.83;;
3667;SDS011;24099;47.102;15.440;2023-05-14T06:08:06;3.63;;;2.53;;
3667;SDS011;24099;47.102;15.440;2023-05-14T06:10:35;2.65;;;2.35;;
3667;SDS011;24099;47.102;15.440;2023-05-14T06:13:08;5.55;;;3.00;;
3667;SDS011;24099;47.102;15.440;2023-05-14T06:15:37;4.40;;;2.90;;
3667;SDS011;24099;47.102;15.440;2023-05-14T06:18:04;5.28;;;3.00;;
3667;SDS011;24099;47.102;15.440;2023-05-14T06:20:33;3.50;;;2.80;;
3667;SDS011;24099;47.102;15.440;2023-05-14T06:23:05;4.70;;;3.03;;
3667;SDS011;24099;47.102;15.440;2023-05-14T06:25:33;3.05;;;2.38;;
3667;SDS011;24099;47.102;15.440;2023-05-14T06:28:01;5.25;;;3.13;;
3667;SDS011;24099;47.102;15.440;2023-05-14T06:30:30;3.85;;;2.65;;
3667;SDS011;24099;47.102;15.440;2023-05-14T06:32:58;6.55;;;3.72;;
3667;SDS011;24099;47.102;15.440;2023-05-14T06:35:26;5.28;;;3.30;;
3667;SDS011;24099;47.102;15.440;2023-05-14T06:37:54;6.63;;;3.92;;
3667;SDS011;24099;47.102;15.440;2023-05-14T06:40:21;6.97;;;3.80;;
3667;SDS011;24099;47.102;15.440;2023-05-14T06:42:49;4.13;;;2.92;;
3667;SDS011;24099;47.102;15.440;2023-05-14T06:45:17;4.35;;;2.88;;
3667;SDS011;24099;47.102;15.440;2023-05-14T06:47:47;5.13;;;2.83;;
3667;SDS011;24099;47.102;15.440;2023-05-14T06:50:14;3.85;;;2.95;;
3667;SDS011;24099;47.102;15.440;2023-05-14T06:52:45;4.10;;;2.92;;
3667;SDS011;24099;47.102;15.440;2023-05-14T06:55:12;3.38;;;2.63;;
3667;SDS011;24099;47.102;15.440;2023-05-14T06:57:44;4.53;;;3.05;;
3667;SDS011;24099;47.102;15.440;2023-05-14T07:00:16;5.13;;;3.03;;
3667;SDS011;24099;47.102;15.440;2023-05-14T07:02:47;3.97;;;2.90;;
3667;SDS011;24099;47.102;15.440;2023-05-14T07:05:16;3.67;;;3.25;;
3667;SDS011;24099;47.102;15.440;2023-05-14T07:07:44;6.03;;;2.88;;
3667;SDS011;24099;47.102;15.440;2023-05-14T07:10:12;4.07;;;2.85;;
3667;SDS011;24099;47.102;15.440;2023-05-14T07:12:42;2.50;;;2.30;;
3667;SDS011;24099;47.102;15.440;2023-05-14T07:15:10;2.75;;;2.55;;
3667;SDS011;24099;47.102;15.440;2023-05-14T07:17:38;2.28;;;2.03;;
3667;SDS011;24099;47.102;15.440;2023-05-14T07:20:11;2.20;;;1.90;;
3667;SDS011;24099;47.102;15.440;2023-05-14T07:22:39;1.40;;;1.25;;
3667;SDS011;24099;47.102;15.440;2023-05-14T07:25:08;1.30;;;1.20;;
3667;SDS011;24099;47.102;15.440;2023-05-14T07:27:36;1.77;;;1.40;;
3667;SDS011;24099;47.102;15.440;2023-05-14T07:30:10;1.70;;;1.42;;
3667;SDS011;24099;47.102;15.440;2023-05-14T07:32:40;1.98;;;1.35;;
3667;SDS011;24099;47.102;15.440;2023-05-14T07:35:09;2.15;;;1.50;;
3667;SDS011;24099;47.102;15.440;2023-05-14T07:37:39;1.42;;;1.30;;
3667;SDS011;24099;47.102;15.440;2023-05-14T07:40:09;1.80;;;1.63;;
3667;SDS011;24099;47.102;15.440;2023-05-14T07:42:37;1.33;;;1.00;;
3667;SDS011;24099;47.102;15.440;2023-05-14T07:45:05;1.23;;;0.80;;
3667;SDS011;24099;47.102;15.440;2023-05-14T07:47:34;1.65;;;1.33;;
3667;SDS011;24099;47.102;15.440;2023-05-14T07:50:02;0.60;;;0.60;;
3667;SDS011;24099;47.102;15.440;2023-05-14T07:52:33;1.90;;;1.27;;
3667;SDS011;24099;47.102;15.440;2023-05-14T07:55:01;1.27;;;1.17;;
3667;SDS011;24099;47.102;15.440;2023-05-14T07:57:32;0.85;;;0.82;;
3667;SDS011;24099;47.102;15.440;2023-05-14T08:00:01;0.82;;;0.82;;
3667;SDS011;24099;47.102;15.440;2023-05-14T08:02:37;0.82;;;0.82;;
3667;SDS011;24099;47.102;15.440;2023-05-14T08:05:07;2.33;;;0.95;;
3667;SDS011;24099;47.102;15.440;2023-05-14T08:07:36;1.08;;;1.00;;
3667;SDS011;24099;47.102;15.440;2023-05-14T08:10:05;1.30;;;1.00;;
3667;SDS011;24099;47.102;15.440;2023-05-14T08:12:33;0.90;;;0.90;;
3667;SDS011;24099;47.102;15.440;2023-05-14T08:15:02;0.73;;;0.73;;
3667;SDS011;24099;47.102;15.440;2023-05-14T08:17:32;0.90;;;0.85;;
3667;SDS011;24099;47.102;15.440;2023-05-14T08:19:59;0.90;;;0.90;;
3667;SDS011;24099;47.102;15.440;2023-05-14T08:22:28;1.08;;;1.00;;
3667;SDS011;24099;47.102;15.440;2023-05-14T08:24:57;1.48;;;1.00;;
3667;SDS011;24099;47.102;15.440;2023-05-14T08:27:26;0.80;;;0.80;;
3667;SDS011;24099;47.102;15.440;2023-05-14T08:29:54;1.23;;;0.80;;
3667;SDS011;24099;47.102;15.440;2023-05-14T08:32:21;0.80;;;0.80;;
3667;SDS011;24099;47.102;15.440;2023-05-14T08:34:49;4.45;;;0.90;;
3667;SDS011;24099;47.102;15.440;2023-05-14T08:37:17;0.88;;;0.88;;
3667;SDS011;24099;47.102;15.440;2023-05-14T08:39:45;0.90;;;0.77;;
3667;SDS011;24099;47.102;15.440;2023-05-14T08:42:14;0.70;;;0.70;;
3667;SDS011;24099;47.102;15.440;2023-05-14T08:44:46;0.60;;;0.60;;
3667;SDS011;24099;47.102;15.440;2023-05-14T08:47:15;0.90;;;0.80;;
3667;SDS011;24099;47.102;15.440;2023-05-14T08:49:48;1.13;;;0.82;;
3667;SDS011;24099;47.102;15.440;2023-05-14T08:54:51;1.23;;;0.52;;
3667;SDS011;24099;47.102;15.440;2023-05-14T08:57:22;2.42;;;0.93;;
3667;SDS011;24099;47.102;15.440;2023-05-14T08:59:52;0.70;;;0.70;;
3667;SDS011;24099;47.102;15.440;2023-05-14T09:02:21;0.50;;;0.50;;
3667;SDS011;24099;47.102;15.440;2023-05-14T09:04:50;1.13;;;0.68;;
3667;SDS011;24099;47.102;15.440;2023-05-14T09:07:21;0.73;;;0.73;;
3667;SDS011;24099;47.102;15.440;2023-05-14T09:09:50;0.80;;;0.80;;
3667;SDS011;24099;47.102;15.440;2023-05-14T09:12:18;0.52;;;0.52;;
3667;SDS011;24099;47.102;15.440;2023-05-14T09:14:52;1.02;;;0.63;;
3667;SDS011;24099;47.102;15.440;2023-05-14T09:17:21;0.60;;;0.60;;
3667;SDS011;24099;47.102;15.440;2023-05-14T09:19:52;0.40;;;0.40;;
3667;SDS011;24099;47.102;15.440;2023-05-14T09:22:20;0.63;;;0.63;;
3667;SDS011;24099;47.102;15.440;2023-05-14T09:25:00;0.43;;;0.43;;
3667;SDS011;24099;47.102;15.440;2023-05-14T09:27:29;0.70;;;0.70;;
3667;SDS011;24099;47.102;15.440;2023-05-14T09:30:05;0.60;;;0.60;;
3667;SDS011;24099;47.102;15.440;2023-05-14T09:32:35;0.63;;;0.63;;
3667;SDS011;24099;47.102;15.440;2023-05-14T09:35:13;0.60;;;0.60;;
3667;SDS011;24099;47.102;15.440;2023-05-14T09:37:43;0.50;;;0.50;;
3667;SDS011;24099;47.102;15.440;2023-05-14T09:40:12;0.63;;;0.63;;
3667;SDS011;24099;47.102;15.440;2023-05-14T09:42:41;0.55;;;0.55;;
3667;SDS011;24099;47.102;15.440;2023-05-14T09:45:11;0.60;;;0.60;;
3667;SDS011;24099;47.102;15.440;2023-05-14T09:47:39;0.40;;;0.40;;
3667;SDS011;24099;47.102;15.440;2023-05-14T09:50:11;0.60;;;0.60;;
3667;SDS011;24099;47.102;15.440;2023-05-14T09:52:39;0.57;;;0.57;;
3667;SDS011;24099;47.102;15.440;2023-05-14T09:55:08;0.60;;;0.60;;
3667;SDS011;24099;47.102;15.440;2023-05-14T09:57:38;0.50;;;0.50;;
3667;SDS011;24099;47.102;15.440;2023-05-14T10:00:07;0.50;;;0.50;;
3667;SDS011;24099;47.102;15.440;2023-05-14T10:02:38;0.50;;;0.50;;
3667;SDS011;24099;47.102;15.440;2023-05-14T10:05:08;0.70;;;0.60;;
3667;SDS011;24099;47.102;15.440;2023-05-14T10:07:38;0.40;;;0.40;;
3667;SDS011;24099;47.102;15.440;2023-05-14T10:10:11;0.30;;;0.30;;
3667;SDS011;24099;47.102;15.440;2023-05-14T10:12:41;0.50;;;0.50;;
3667;SDS011;24099;47.102;15.440;2023-05-14T10:15:15;0.30;;;0.30;;
3667;SDS011;24099;47.102;15.440;2023-05-14T10:17:48;0.30;;;0.30;;
3667;SDS011;24099;47.102;15.440;2023-05-14T10:20:20;1.05;;;0.70;;
3667;SDS011;24099;47.102;15.440;2023-05-14T10:22:50;0.47;;;0.47;;
3667;SDS011;24099;47.102;15.440;2023-05-14T10:25:18;0.52;;;0.52;;
3667;SDS011;24099;47.102;15.440;2023-05-14T10:27:47;0.52;;;0.52;;
3667;SDS011;24099;47.102;15.440;2023-05-14T10:30:19;0.82;;;0.60;;
3667;SDS011;24099;47.102;15.440;2023-05-14T10:32:50;0.60;;;0.60;;
3667;SDS011;24099;47.102;15.440;2023-05-14T10:38:16;0.40;;;0.40;;
3667;SDS011;24099;47.102;15.440;2023-05-14T10:40:47;2.25;;;0.60;;
3667;SDS011;24099;47.102;15.440;2023-05-14T10:43:16;0.30;;;0.30;;
3667;SDS011;24099;47.102;15.440;2023-05-14T10:45:45;0.60;;;0.60;;
3667;SDS011;24099;47.102;15.440;2023-05-14T10:48:14;0.50;;;0.50;;
3667;SDS011;24099;47.102;15.440;2023-05-14T10:50:46;0.40;;;0.40;;
3667;SDS011;24099;47.102;15.440;2023-05-14T10:53:15;1.15;;;0.80;;
3667;SDS011;24099;47.102;15.440;2023-05-14T10:55:45;0.40;;;0.40;;
3667;SDS011;24099;47.102;15.440;2023-05-14T10:58:13;0.47;;;0.47;;
3667;SDS011;24099;47.102;15.440;2023-05-14T11:00:41;0.32;;;0.32;;
3667;SDS011;24099;47.102;15.440;2023-05-14T11:03:12;0.45;;;0.45;;
3667;SDS011;24099;47.102;15.440;2023-05-14T11:05:44;0.47;;;0.40;;
3667;SDS011;24099;47.102;15.440;2023-05-14T11:08:13;0.50;;;0.50;;
3667;SDS011;24099;47.102;15.440;2023-05-14T11:10:44;0.73;;;0.40;;
3667;SDS011;24099;47.102;15.440;2023-05-14T11:13:12;0.43;;;0.43;;
3667;SDS011;24099;47.102;15.440;2023-05-14T11:15:42;0.40;;;0.40;;
3667;SDS011;24099;47.102;15.440;2023-05-14T11:18:25;0.40;;;0.40;;
3667;SDS011;24099;47.102;15.440;2023-05-14T11:20:56;0.45;;;0.45;;
3667;SDS011;24099;47.102;15.440;2023-05-14T11:23:25;0.35;;;0.32;;
3667;SDS011;24099;47.102;15.440;2023-05-14T11:25:54;0.35;;;0.35;;
3667;SDS011;24099;47.102;15.440;2023-05-14T11:28:23;0.55;;;0.55;;
3667;SDS011;24099;47.102;15.440;2023-05-14T11:33:33;0.50;;;0.50;;
3667;SDS011;24099;47.102;15.440;2023-05-14T11:36:03;0.43;;;0.43;;
3667;SDS011;24099;47.102;15.440;2023-05-14T11:38:31;0.30;;;0.30;;
3667;SDS011;24099;47.102;15.440;2023-05-14T11:40:58;0.50;;;0.50;;
3667;SDS011;24099;47.102;15.440;2023-05-14T11:43:31;0.65;;;0.45;;
3667;SDS011;24099;47.102;15.440;2023-05-14T11:46:02;0.65;;;0.40;;
3667;SDS011;24099;47.102;15.440;2023-05-14T11:48:31;0.32;;;0.32;;
3667;SDS011;24099;47.102;15.440;2023-05-14T11:50:59;0.38;;;0.30;;
3667;SDS011;24099;47.102;15.440;2023-05-14T11:53:27;0.30;;;0.30;;
3667;SDS011;24099;47.102;15.440;2023-05-14T11:55:57;0.32;;;0.32;;
3667;SDS011;24099;47.102;15.440;2023-05-14T11:58:26;0.32;;;0.32;;
3667;SDS011;24099;47.102;15.440;2023-05-14T12:00:57;0.68;;;0.50;;
3667;SDS011;24099;47.102;15.440;2023-05-14T12:03:25;0.50;;;0.50;;
3667;SDS011;24099;47.102;15.440;2023-05-14T12:05:57;0.22;;;0.22;;
3667;SDS011;24099;47.102;15.440;2023-05-14T12:08:26;0.45;;;0.45;;
3667;SDS011;24099;47.102;15.440;2023-05-14T12:10:56;0.40;;;0.40;;
3667;SDS011;24099;47.102;15.440;2023-05-14T12:13:26;0.30;;;0.30;;
3667;SDS011;24099;47.102;15.440;2023-05-14T12:15:56;0.30;;;0.30;;
3667;SDS011;24099;47.102;15.440;2023-05-14T12:18:30;0.30;;;0.30;;
3667;SDS011;24099;47.102;15.440;2023-05-14T12:21:02;0.22;;;0.22;;
3667;SDS011;24099;47.102;15.440;2023-05-14T12:23:32;0.20;;;0.20;;
3667;SDS011;24099;47.102;15.440;2023-05-14T12:26:01;0.47;;;0.47;;
3667;SDS011;24099;47.102;15.440;2023-05-14T12:28:34;0.82;;;0.80;;
3667;SDS011;24099;47.102;15.440;2023-05-14T12:31:07;0.50;;;0.50;;
3667;SDS011;24099;47.102;15.440;2023-05-14T12:33:35;0.22;;;0.22;;
3667;SDS011;24099;47.102;15.440;2023-05-14T12:36:04;0.25;;;0.25;;
3667;SDS011;24099;47.102;15.440;2023-05-14T12:38:32;0.40;;;0.40;;
3667;SDS011;24099;47.102;15.440;2023-05-14T12:41:02;0.40;;;0.40;;
3667;SDS011;24099;47.102;15.440;2023-05-14T12:43:30;0.30;;;0.30;;
3667;SDS011;24099;47.102;15.440;2023-05-14T12:45:58;0.13;;;0.13;;
3667;SDS011;24099;47.102;15.440;2023-05-14T12:48:26;0.40;;;0.28;;
3667;SDS011;24099;47.102;15.440;2023-05-14T12:50:54;0.70;;;0.17;;
3667;SDS011;24099;47.102;15.440;2023-05-14T12:53:23;0.30;;;0.30;;
3667;SDS011;24099;47.102;15.440;2023-05-14T12:55:51;0.25;;;0.13;;
3667;SDS011;24099;47.102;15.440;2023-05-14T12:58:19;0.10;;;0.10;;
3667;SDS011;24099;47.102;15.440;2023-05-14T13:00:47;0.10;;;0.10;;
3667;SDS011;24099;47.102;15.440;2023-05-14T13:03:15;0.40;;;0.20;;
3667;SDS011;24099;47.102;15.440;2023-05-14T13:05:42;2.72;;;0.77;;
3667;SDS011;24099;47.102;15.440;2023-05-14T13:08:10;0.20;;;0.20;;
3667;SDS011;24099;47.102;15.440;2023-05-14T13:10:43;4.38;;;0.45;;
3667;SDS011;24099;47.102;15.440;2023-05-14T13:13:11;0.10;;;0.10;;
3667;SDS011;24099;47.102;15.440;2023-05-14T13:15:40;0.20;;;0.20;;
3667;SDS011;24099;47.102;15.440;2023-05-14T13:18:11;0.20;;;0.20;;
3667;SDS011;24099;47.102;15.440;2023-05-14T13:20:39;0.20;;;0.20;;
3667;SDS011;24099;47.102;15.440;2023-05-14T13:23:07;0.17;;;0.10;;
3667;SDS011;24099;47.102;15.440;2023-05-14T13:25:37;0.22;;;0.20;;
3667;SDS011;24099;47.102;15.440;2023-05-14T13:28:07;0.20;;;0.20;;
3667;SDS011;24099;47.102;15.440;2023-05-14T13:30:35;0.30;;;0.30;;
3667;SDS011;24099;47.102;15.440;2023-05-14T13:33:03;0.30;;;0.30;;
3667;SDS011;24099;47.102;15.440;2023-05-14T13:35:31;0.30;;;0.30;;
3667;SDS011;24099;47.102;15.440;2023-05-14T13:37:59;0.45;;;0.30;;
3667;SDS011;24099;47.102;15.440;2023-05-14T13:40:27;0.20;;;0.20;;
3667;SDS011;24099;47.102;15.440;2023-05-14T13:42:55;0.20;;;0.20;;
3667;SDS011;24099;47.102;15.440;2023-05-14T13:45:24;0.17;;;0.17;;
3667;SDS011;24099;47.102;15.440;2023-05-14T13:47:52;0.10;;;0.10;;
3667;SDS011;24099;47.102;15.440;2023-05-14T13:50:20;0.10;;;0.10;;
3667;SDS011;24099;47.102;15.440;2023-05-14T13:52:48;0.10;;;0.10;;
3667;SDS011;24099;47.102;15.440;2023-05-14T13:55:16;0.20;;;0.20;;
3667;SDS011;24099;47.102;15.440;2023-05-14T13:57:44;0.28;;;0.25;;
3667;SDS011;24099;47.102;15.440;2023-05-14T14:00:12;0.10;;;0.10;;
3667;SDS011;24099;47.102;15.440;2023-05-14T14:02:45;0.20;;;0.20;;
3667;SDS011;24099;47.102;15.440;2023-05-14T14:05:14;1.00;;;0.20;;
3667;SDS011;24099;47.102;15.440;2023-05-14T14:07:41;0.43;;;0.10;;
3667;SDS011;24099;47.102;15.440;2023-05-14T14:10:09;0.10;;;0.10;;
3667;SDS011;24099;47.102;15.440;2023-05-14T14:12:37;0.10;;;0.10;;
3667;SDS011;24099;47.102;15.440;2023-05-14T14:15:06;0.10;;;0.10;;
3667;SDS011;24099;47.102;15.440;2023-05-14T14:17:34;0.20;;;0.20;;
3667;SDS011;24099;47.102;15.440;2023-05-14T14:20:08;0.10;;;0.10;;
3667;SDS011;24099;47.102;15.440;2023-05-14T14:22:36;0.10;;;0.10;;
3667;SDS011;24099;47.102;15.440;2023-05-14T14:25:07;2.83;;;0.20;;
3667;SDS011;24099;47.102;15.440;2023-05-14T14:27:37;0.10;;;0.10;;
3667;SDS011;24099;47.102;15.440;2023-05-14T14:30:07;0.10;;;0.10;;
3667;SDS011;24099;47.102;15.440;2023-05-14T14:32:40;0.10;;;0.10;;
3667;SDS011;24099;47.102;15.440;2023-05-14T14:35:11;0.10;;;0.10;;
3667;SDS011;24099;47.102;15.440;2023-05-14T14:37:41;0.10;;;0.10;;
3667;SDS011;24099;47.102;15.440;2023-05-14T14:40:13;0.20;;;0.20;;
3667;SDS011;24099;47.102;15.440;2023-05-14T14:42:44;0.20;;;0.20;;
3667;SDS011;24099;47.102;15.440;2023-05-14T14:45:11;0.70;;;0.40;;
3667;SDS011;24099;47.102;15.440;2023-05-14T14:47:41;0.52;;;0.50;;
3667;SDS011;24099;47.102;15.440;2023-05-14T14:50:12;0.50;;;0.50;;
3667;SDS011;24099;47.102;15.440;2023-05-14T14:52:40;0.57;;;0.45;;
3667;SDS011;24099;47.102;15.440;2023-05-14T14:55:10;0.80;;;0.60;;
3667;SDS011;24099;47.102;15.440;2023-05-14T14:57:39;0.20;;;0.20;;
3667;SDS011;24099;47.102;15.440;2023-05-14T15:00:07;0.20;;;0.20;;
3667;SDS011;24099;47.102;15.440;2023-05-14T15:02:35;0.28;;;0.28;;
3667;SDS011;24099;47.102;15.440;2023-05-14T15:05:06;0.63;;;0.32;;
3667;SDS011;24099;47.102;15.440;2023-05-14T15:07:36;0.10;;;0.10;;
3667;SDS011;24099;47.102;15.440;2023-05-14T15:10:15;0.10;;;0.10;;